sensor_id;sensor_type;location;lat;lon;timestamp;temperature;humidity
27940;DHT22;15275;51.716;14.324;2023-04-24T00:00:56;14.30;75.20
27940;DHT22;15275;51.716;14.324;2023-04-24T00:03:25;14.30;75.30
27940;DHT22;15275;51.716;14.324;2023-04-24T00:05:51;14.30;75.60
27940;DHT22;15275;51.716;14.324;2023-04-24T00:08:18;14.20;75.70
27940;DHT22;15275;51.716;14.324;2023-04-24T00:10:44;14.20;75.80
27940;DHT22;15275;51.716;14.324;2023-04-24T00:13:10;14.10;75.90
27940;DHT22;15275;51.716;14.324;2023-04-24T00:15:36;14.10;76.10
27940;DHT22;15275;51.716;14.324;2023-04-24T00:18:02;14.10;76.10
27940;DHT22;15275;51.716;14.324;2023-04-24T00:20:28;14.10;76.20
27940;DHT22;15275;51.716;14.324;2023-04-24T00:22:58;14.10;76.20
27940;DHT22;15275;51.716;14.324;2023-04-24T00:25:24;14.00;76.20
27940;DHT22;15275;51.716;14.324;2023-04-24T00:27:50;14.00;76.30
27940;DHT22;15275;51.716;14.324;2023-04-24T00:30:16;14.00;76.40
27940;DHT22;15275;51.716;14.324;2023-04-24T00:32:42;14.00;76.40
27940;DHT22;15275;51.716;14.324;2023-04-24T00:35:08;14.00;76.50
27940;DHT22;15275;51.716;14.324;2023-04-24T00:37:34;13.90;76.70
27940;DHT22;15275;51.716;14.324;2023-04-24T00:40:00;13.90;76.80
27940;DHT22;15275;51.716;14.324;2023-04-24T00:42:26;13.90;76.80
27940;DHT22;15275;51.716;14.324;2023-04-24T00:44:52;13.90;76.90
27940;DHT22;15275;51.716;14.324;2023-04-24T00:47:19;13.90;76.90
27940;DHT22;15275;51.716;14.324;2023-04-24T00:49:45;13.90;76.90
27940;DHT22;15275;51.716;14.324;2023-04-24T00:52:11;13.90;76.90
27940;DHT22;15275;51.716;14.324;2023-04-24T00:54:37;13.90;76.90
27940;DHT22;15275;51.716;14.324;2023-04-24T00:57:04;13.90;76.80
27940;DHT22;15275;51.716;14.324;2023-04-24T00:59:30;13.90;76.90
27940;DHT22;15275;51.716;14.324;2023-04-24T01:01:57;13.90;76.90
27940;DHT22;15275;51.716;14.324;2023-04-24T01:04:24;13.80;76.80
27940;DHT22;15275;51.716;14.324;2023-04-24T01:06:51;13.80;76.60
27940;DHT22;15275;51.716;14.324;2023-04-24T01:09:18;13.80;76.50
27940;DHT22;15275;51.716;14.324;2023-04-24T01:11:44;13.80;76.50
27940;DHT22;15275;51.716;14.324;2023-04-24T01:14:10;13.80;76.60
27940;DHT22;15275;51.716;14.324;2023-04-24T01:16:36;13.70;76.80
27940;DHT22;15275;51.716;14.324;2023-04-24T01:19:04;13.60;76.80
27940;DHT22;15275;51.716;14.324;2023-04-24T01:21:36;13.60;76.90
27940;DHT22;15275;51.716;14.324;2023-04-24T01:24:03;13.60;77.00
27940;DHT22;15275;51.716;14.324;2023-04-24T01:26:30;13.60;76.90
27940;DHT22;15275;51.716;14.324;2023-04-24T01:28:56;13.50;76.90
27940;DHT22;15275;51.716;14.324;2023-04-24T01:31:22;13.50;76.90
27940;DHT22;15275;51.716;14.324;2023-04-24T01:33:49;13.40;76.90
27940;DHT22;15275;51.716;14.324;2023-04-24T01:36:16;13.40;77.10
27940;DHT22;15275;51.716;14.324;2023-04-24T01:38:42;13.40;77.20
27940;DHT22;15275;51.716;14.324;2023-04-24T01:41:08;13.40;77.40
27940;DHT22;15275;51.716;14.324;2023-04-24T01:43:34;13.40;77.50
27940;DHT22;15275;51.716;14.324;2023-04-24T01:46:00;13.40;77.50
27940;DHT22;15275;51.716;14.324;2023-04-24T01:48:26;13.40;77.60
27940;DHT22;15275;51.716;14.324;2023-04-24T01:50:52;13.40;77.70
27940;DHT22;15275;51.716;14.324;2023-04-24T01:53:18;13.40;78.00
27940;DHT22;15275;51.716;14.324;2023-04-24T01:55:44;13.40;78.20
27940;DHT22;15275;51.716;14.324;2023-04-24T01:58:09;13.40;78.20
27940;DHT22;15275;51.716;14.324;2023-04-24T02:00:35;13.40;78.30
27940;DHT22;15275;51.716;14.324;2023-04-24T02:03:01;13.40;78.40
27940;DHT22;15275;51.716;14.324;2023-04-24T02:05:28;13.40;78.50
27940;DHT22;15275;51.716;14.324;2023-04-24T02:07:55;13.40;78.60
27940;DHT22;15275;51.716;14.324;2023-04-24T02:10:20;13.40;78.70
27940;DHT22;15275;51.716;14.324;2023-04-24T02:12:47;13.50;78.70
27940;DHT22;15275;51.716;14.324;2023-04-24T02:15:13;13.50;78.50
27940;DHT22;15275;51.716;14.324;2023-04-24T02:17:38;13.50;78.50
27940;DHT22;15275;51.716;14.324;2023-04-24T02:20:06;13.50;78.60
27940;DHT22;15275;51.716;14.324;2023-04-24T02:22:32;13.50;78.70
27940;DHT22;15275;51.716;14.324;2023-04-24T02:24:58;13.50;78.60
27940;DHT22;15275;51.716;14.324;2023-04-24T02:27:24;13.40;78.70
27940;DHT22;15275;51.716;14.324;2023-04-24T02:29:50;13.40;78.70
27940;DHT22;15275;51.716;14.324;2023-04-24T02:32:15;13.40;78.70
27940;DHT22;15275;51.716;14.324;2023-04-24T02:34:41;13.40;78.70
27940;DHT22;15275;51.716;14.324;2023-04-24T02:37:07;13.40;78.80
27940;DHT22;15275;51.716;14.324;2023-04-24T02:39:33;13.40;78.90
27940;DHT22;15275;51.716;14.324;2023-04-24T02:41:58;13.40;78.90
27940;DHT22;15275;51.716;14.324;2023-04-24T02:44:25;13.40;78.90
27940;DHT22;15275;51.716;14.324;2023-04-24T02:46:51;13.40;78.90
27940;DHT22;15275;51.716;14.324;2023-04-24T02:49:16;13.40;78.90
27940;DHT22;15275;51.716;14.324;2023-04-24T02:51:42;13.40;78.90
27940;DHT22;15275;51.716;14.324;2023-04-24T02:54:08;13.40;78.90
27940;DHT22;15275;51.716;14.324;2023-04-24T02:56:35;13.40;78.80
27940;DHT22;15275;51.716;14.324;2023-04-24T02:59:01;13.40;78.70
27940;DHT22;15275;51.716;14.324;2023-04-24T03:01:27;13.40;78.70
27940;DHT22;15275;51.716;14.324;2023-04-24T03:03:53;13.40;78.70
27940;DHT22;15275;51.716;14.324;2023-04-24T03:06:19;13.40;78.70
27940;DHT22;15275;51.716;14.324;2023-04-24T03:08:47;13.40;78.60
27940;DHT22;15275;51.716;14.324;2023-04-24T03:11:12;13.40;78.60
27940;DHT22;15275;51.716;14.324;2023-04-24T03:13:38;13.40;78.70
27940;DHT22;15275;51.716;14.324;2023-04-24T03:16:04;13.40;78.80
27940;DHT22;15275;51.716;14.324;2023-04-24T03:18:31;13.40;78.90
27940;DHT22;15275;51.716;14.324;2023-04-24T03:20:57;13.40;78.90
27940;DHT22;15275;51.716;14.324;2023-04-24T03:23:23;13.40;78.90
27940;DHT22;15275;51.716;14.324;2023-04-24T03:25:48;13.40;78.90
27940;DHT22;15275;51.716;14.324;2023-04-24T03:28:14;13.40;79.00
27940;DHT22;15275;51.716;14.324;2023-04-24T03:30:40;13.40;79.10
27940;DHT22;15275;51.716;14.324;2023-04-24T03:33:06;13.40;79.20
27940;DHT22;15275;51.716;14.324;2023-04-24T03:35:32;13.40;79.40
27940;DHT22;15275;51.716;14.324;2023-04-24T03:37:57;13.40;79.60
27940;DHT22;15275;51.716;14.324;2023-04-24T03:40:23;13.40;79.80
27940;DHT22;15275;51.716;14.324;2023-04-24T03:42:49;13.50;79.90
27940;DHT22;15275;51.716;14.324;2023-04-24T03:45:15;13.50;80.10
27940;DHT22;15275;51.716;14.324;2023-04-24T03:47:41;13.60;80.10
27940;DHT22;15275;51.716;14.324;2023-04-24T03:50:07;13.70;80.20
27940;DHT22;15275;51.716;14.324;2023-04-24T03:52:33;13.70;80.20
27940;DHT22;15275;51.716;14.324;2023-04-24T03:54:59;13.80;80.20
27940;DHT22;15275;51.716;14.324;2023-04-24T03:57:24;13.90;80.20
27940;DHT22;15275;51.716;14.324;2023-04-24T03:59:50;13.90;80.20
27940;DHT22;15275;51.716;14.324;2023-04-24T04:02:16;14.00;80.20
27940;DHT22;15275;51.716;14.324;2023-04-24T04:04:42;14.10;80.20
27940;DHT22;15275;51.716;14.324;2023-04-24T04:07:08;14.10;80.20
27940;DHT22;15275;51.716;14.324;2023-04-24T04:09:34;14.20;80.30
27940;DHT22;15275;51.716;14.324;2023-04-24T04:12:00;14.20;80.30
27940;DHT22;15275;51.716;14.324;2023-04-24T04:14:26;14.30;80.40
27940;DHT22;15275;51.716;14.324;2023-04-24T04:16:52;14.40;80.30
27940;DHT22;15275;51.716;14.324;2023-04-24T04:19:18;14.40;80.30
27940;DHT22;15275;51.716;14.324;2023-04-24T04:21:44;14.50;80.20
27940;DHT22;15275;51.716;14.324;2023-04-24T04:24:11;14.60;80.20
27940;DHT22;15275;51.716;14.324;2023-04-24T04:26:38;14.60;80.20
27940;DHT22;15275;51.716;14.324;2023-04-24T04:29:04;14.70;80.20
27940;DHT22;15275;51.716;14.324;2023-04-24T04:31:30;14.80;80.20
27940;DHT22;15275;51.716;14.324;2023-04-24T04:33:56;14.80;80.10
27940;DHT22;15275;51.716;14.324;2023-04-24T04:36:22;14.90;80.10
27940;DHT22;15275;51.716;14.324;2023-04-24T04:38:49;14.90;80.00
27940;DHT22;15275;51.716;14.324;2023-04-24T04:41:15;15.00;79.90
27940;DHT22;15275;51.716;14.324;2023-04-24T04:43:42;15.10;79.90
27940;DHT22;15275;51.716;14.324;2023-04-24T04:46:08;15.10;79.80
27940;DHT22;15275;51.716;14.324;2023-04-24T04:48:36;15.20;79.70
27940;DHT22;15275;51.716;14.324;2023-04-24T04:51:02;15.20;79.60
27940;DHT22;15275;51.716;14.324;2023-04-24T04:53:28;15.30;79.60
27940;DHT22;15275;51.716;14.324;2023-04-24T04:55:53;15.40;79.60
27940;DHT22;15275;51.716;14.324;2023-04-24T04:58:19;15.40;79.50
27940;DHT22;15275;51.716;14.324;2023-04-24T05:00:45;15.50;79.40
27940;DHT22;15275;51.716;14.324;2023-04-24T05:03:11;15.50;79.30
27940;DHT22;15275;51.716;14.324;2023-04-24T05:05:37;15.60;79.20
27940;DHT22;15275;51.716;14.324;2023-04-24T05:08:07;15.60;79.10
27940;DHT22;15275;51.716;14.324;2023-04-24T05:10:34;15.70;79.10
27940;DHT22;15275;51.716;14.324;2023-04-24T05:13:00;15.70;79.00
27940;DHT22;15275;51.716;14.324;2023-04-24T05:15:26;15.80;78.90
27940;DHT22;15275;51.716;14.324;2023-04-24T05:17:52;15.80;78.90
27940;DHT22;15275;51.716;14.324;2023-04-24T05:20:18;15.90;78.80
27940;DHT22;15275;51.716;14.324;2023-04-24T05:22:43;15.90;78.70
27940;DHT22;15275;51.716;14.324;2023-04-24T05:25:09;16.00;78.60
27940;DHT22;15275;51.716;14.324;2023-04-24T05:27:35;16.00;78.60
27940;DHT22;15275;51.716;14.324;2023-04-24T05:30:01;16.00;78.60
27940;DHT22;15275;51.716;14.324;2023-04-24T05:32:27;16.10;78.60
27940;DHT22;15275;51.716;14.324;2023-04-24T05:34:53;16.20;78.70
27940;DHT22;15275;51.716;14.324;2023-04-24T05:37:19;16.30;78.80
27940;DHT22;15275;51.716;14.324;2023-04-24T05:39:44;16.40;78.80
27940;DHT22;15275;51.716;14.324;2023-04-24T05:42:10;16.50;78.80
27940;DHT22;15275;51.716;14.324;2023-04-24T05:44:36;16.60;78.90
27940;DHT22;15275;51.716;14.324;2023-04-24T05:47:02;16.80;79.30
27940;DHT22;15275;51.716;14.324;2023-04-24T05:49:28;17.00;79.30
27940;DHT22;15275;51.716;14.324;2023-04-24T05:51:53;17.30;78.50
27940;DHT22;15275;51.716;14.324;2023-04-24T05:54:19;17.40;77.70
27940;DHT22;15275;51.716;14.324;2023-04-24T05:56:45;17.60;77.40
27940;DHT22;15275;51.716;14.324;2023-04-24T05:59:11;17.80;77.20
27940;DHT22;15275;51.716;14.324;2023-04-24T06:01:37;17.90;76.80
27940;DHT22;15275;51.716;14.324;2023-04-24T06:04:04;18.10;76.10
27940;DHT22;15275;51.716;14.324;2023-04-24T06:06:29;18.20;75.90
27940;DHT22;15275;51.716;14.324;2023-04-24T06:08:56;18.30;76.00
27940;DHT22;15275;51.716;14.324;2023-04-24T06:11:22;18.50;75.90
27940;DHT22;15275;51.716;14.324;2023-04-24T06:13:48;18.60;75.40
27940;DHT22;15275;51.716;14.324;2023-04-24T06:16:14;18.70;75.20
27940;DHT22;15275;51.716;14.324;2023-04-24T06:18:40;18.80;74.80
27940;DHT22;15275;51.716;14.324;2023-04-24T06:21:05;18.90;74.30
27940;DHT22;15275;51.716;14.324;2023-04-24T06:23:31;19.00;73.70
27940;DHT22;15275;51.716;14.324;2023-04-24T06:25:58;19.10;73.70
27940;DHT22;15275;51.716;14.324;2023-04-24T06:28:25;19.10;73.40
27940;DHT22;15275;51.716;14.324;2023-04-24T06:30:51;19.20;72.80
27940;DHT22;15275;51.716;14.324;2023-04-24T06:33:17;19.20;72.60
27940;DHT22;15275;51.716;14.324;2023-04-24T06:35:43;19.30;72.10
27940;DHT22;15275;51.716;14.324;2023-04-24T06:38:09;19.30;71.80
27940;DHT22;15275;51.716;14.324;2023-04-24T06:40:35;19.40;71.30
27940;DHT22;15275;51.716;14.324;2023-04-24T06:43:00;19.40;70.80
27940;DHT22;15275;51.716;14.324;2023-04-24T06:45:29;19.40;70.70
27940;DHT22;15275;51.716;14.324;2023-04-24T06:47:55;19.40;70.00
27940;DHT22;15275;51.716;14.324;2023-04-24T06:50:21;19.40;69.90
27940;DHT22;15275;51.716;14.324;2023-04-24T06:52:47;19.40;69.70
27940;DHT22;15275;51.716;14.324;2023-04-24T06:55:13;19.40;69.40
27940;DHT22;15275;51.716;14.324;2023-04-24T06:57:40;19.40;69.80
27940;DHT22;15275;51.716;14.324;2023-04-24T07:00:07;19.40;69.80
27940;DHT22;15275;51.716;14.324;2023-04-24T07:02:34;19.50;70.00
27940;DHT22;15275;51.716;14.324;2023-04-24T07:05:00;19.50;69.40
27940;DHT22;15275;51.716;14.324;2023-04-24T07:07:27;19.50;69.50
27940;DHT22;15275;51.716;14.324;2023-04-24T07:09:53;19.50;69.50
27940;DHT22;15275;51.716;14.324;2023-04-24T07:12:19;19.60;69.30
27940;DHT22;15275;51.716;14.324;2023-04-24T07:14:47;19.60;69.00
27940;DHT22;15275;51.716;14.324;2023-04-24T07:17:13;19.70;69.30
27940;DHT22;15275;51.716;14.324;2023-04-24T07:19:39;19.80;69.50
27940;DHT22;15275;51.716;14.324;2023-04-24T07:22:05;19.80;69.70
27940;DHT22;15275;51.716;14.324;2023-04-24T07:24:31;19.90;69.50
27940;DHT22;15275;51.716;14.324;2023-04-24T07:26:58;20.10;69.10
27940;DHT22;15275;51.716;14.324;2023-04-24T07:29:24;20.10;69.00
27940;DHT22;15275;51.716;14.324;2023-04-24T07:31:50;20.20;68.60
27940;DHT22;15275;51.716;14.324;2023-04-24T07:34:16;20.30;68.30
27940;DHT22;15275;51.716;14.324;2023-04-24T07:36:42;20.40;68.00
27940;DHT22;15275;51.716;14.324;2023-04-24T07:39:08;20.40;67.90
27940;DHT22;15275;51.716;14.324;2023-04-24T07:41:34;20.50;68.30
27940;DHT22;15275;51.716;14.324;2023-04-24T07:44:00;20.60;68.50
27940;DHT22;15275;51.716;14.324;2023-04-24T07:46:26;20.70;68.30
27940;DHT22;15275;51.716;14.324;2023-04-24T07:48:55;20.80;68.00
27940;DHT22;15275;51.716;14.324;2023-04-24T07:51:21;20.90;67.20
27940;DHT22;15275;51.716;14.324;2023-04-24T07:53:47;21.00;67.10
27940;DHT22;15275;51.716;14.324;2023-04-24T07:56:13;21.00;66.70
27940;DHT22;15275;51.716;14.324;2023-04-24T07:58:39;21.10;66.40
27940;DHT22;15275;51.716;14.324;2023-04-24T08:01:05;21.10;65.80
27940;DHT22;15275;51.716;14.324;2023-04-24T08:03:31;21.10;65.90
27940;DHT22;15275;51.716;14.324;2023-04-24T08:05:56;21.10;65.80
27940;DHT22;15275;51.716;14.324;2023-04-24T08:08:23;21.10;65.50
27940;DHT22;15275;51.716;14.324;2023-04-24T08:10:49;21.10;65.60
27940;DHT22;15275;51.716;14.324;2023-04-24T08:13:15;21.20;65.40
27940;DHT22;15275;51.716;14.324;2023-04-24T08:15:41;21.20;65.50
27940;DHT22;15275;51.716;14.324;2023-04-24T08:18:07;21.20;65.20
27940;DHT22;15275;51.716;14.324;2023-04-24T08:20:33;21.20;65.00
27940;DHT22;15275;51.716;14.324;2023-04-24T08:22:59;21.20;64.90
27940;DHT22;15275;51.716;14.324;2023-04-24T08:25:25;21.20;64.70
27940;DHT22;15275;51.716;14.324;2023-04-24T08:27:51;21.20;65.10
27940;DHT22;15275;51.716;14.324;2023-04-24T08:30:18;21.30;64.70
27940;DHT22;15275;51.716;14.324;2023-04-24T08:32:44;21.30;64.70
27940;DHT22;15275;51.716;14.324;2023-04-24T08:35:10;21.30;64.90
27940;DHT22;15275;51.716;14.324;2023-04-24T08:37:36;21.40;64.90
27940;DHT22;15275;51.716;14.324;2023-04-24T08:40:28;21.40;65.10
27940;DHT22;15275;51.716;14.324;2023-04-24T08:42:57;21.50;64.20
27940;DHT22;15275;51.716;14.324;2023-04-24T08:45:24;21.60;65.70
27940;DHT22;15275;51.716;14.324;2023-04-24T08:47:50;21.60;65.30
27940;DHT22;15275;51.716;14.324;2023-04-24T08:50:18;21.70;65.10
27940;DHT22;15275;51.716;14.324;2023-04-24T08:52:44;21.80;64.90
27940;DHT22;15275;51.716;14.324;2023-04-24T08:55:10;21.90;64.70
27940;DHT22;15275;51.716;14.324;2023-04-24T08:57:36;22.00;64.40
27940;DHT22;15275;51.716;14.324;2023-04-24T09:00:05;22.10;64.70
27940;DHT22;15275;51.716;14.324;2023-04-24T09:02:32;22.20;64.50
27940;DHT22;15275;51.716;14.324;2023-04-24T09:05:00;22.20;64.10
27940;DHT22;15275;51.716;14.324;2023-04-24T09:07:27;22.30;64.00
27940;DHT22;15275;51.716;14.324;2023-04-24T09:09:55;22.30;64.10
27940;DHT22;15275;51.716;14.324;2023-04-24T09:12:21;22.40;63.40
27940;DHT22;15275;51.716;14.324;2023-04-24T09:14:48;22.40;63.10
27940;DHT22;15275;51.716;14.324;2023-04-24T09:17:15;22.50;63.00
27940;DHT22;15275;51.716;14.324;2023-04-24T09:19:41;22.50;62.70
27940;DHT22;15275;51.716;14.324;2023-04-24T09:22:08;22.50;62.60
27940;DHT22;15275;51.716;14.324;2023-04-24T09:24:35;22.50;62.20
27940;DHT22;15275;51.716;14.324;2023-04-24T09:27:01;22.50;61.80
27940;DHT22;15275;51.716;14.324;2023-04-24T09:29:27;22.50;61.40
27940;DHT22;15275;51.716;14.324;2023-04-24T09:31:53;22.50;61.30
27940;DHT22;15275;51.716;14.324;2023-04-24T09:34:25;22.40;61.20
27940;DHT22;15275;51.716;14.324;2023-04-24T09:36:54;22.50;61.50
27940;DHT22;15275;51.716;14.324;2023-04-24T09:39:21;22.50;61.30
27940;DHT22;15275;51.716;14.324;2023-04-24T09:41:54;22.50;62.00
27940;DHT22;15275;51.716;14.324;2023-04-24T09:44:27;22.60;60.70
27940;DHT22;15275;51.716;14.324;2023-04-24T09:47:00;22.70;61.60
27940;DHT22;15275;51.716;14.324;2023-04-24T09:49:30;22.80;60.00
27940;DHT22;15275;51.716;14.324;2023-04-24T09:52:09;22.90;59.70
27940;DHT22;15275;51.716;14.324;2023-04-24T09:54:36;22.90;58.90
27940;DHT22;15275;51.716;14.324;2023-04-24T09:57:03;22.80;59.90
27940;DHT22;15275;51.716;14.324;2023-04-24T09:59:29;22.80;59.70
27940;DHT22;15275;51.716;14.324;2023-04-24T10:01:55;22.70;59.50
27940;DHT22;15275;51.716;14.324;2023-04-24T10:04:28;22.60;59.50
27940;DHT22;15275;51.716;14.324;2023-04-24T10:06:56;22.50;59.60
27940;DHT22;15275;51.716;14.324;2023-04-24T10:09:25;22.30;60.00
27940;DHT22;15275;51.716;14.324;2023-04-24T10:11:52;22.30;60.40
27940;DHT22;15275;51.716;14.324;2023-04-24T10:14:24;22.20;61.20
27940;DHT22;15275;51.716;14.324;2023-04-24T10:16:53;22.20;61.30
27940;DHT22;15275;51.716;14.324;2023-04-24T10:19:20;22.20;61.60
27940;DHT22;15275;51.716;14.324;2023-04-24T10:21:46;22.30;61.90
27940;DHT22;15275;51.716;14.324;2023-04-24T10:24:17;22.40;61.80
27940;DHT22;15275;51.716;14.324;2023-04-24T10:26:44;22.60;61.00
27940;DHT22;15275;51.716;14.324;2023-04-24T10:29:16;22.70;60.50
27940;DHT22;15275;51.716;14.324;2023-04-24T10:31:43;22.70;60.00
27940;DHT22;15275;51.716;14.324;2023-04-24T10:34:12;22.80;59.90
27940;DHT22;15275;51.716;14.324;2023-04-24T10:36:41;22.80;59.60
27940;DHT22;15275;51.716;14.324;2023-04-24T10:39:13;22.80;59.30
27940;DHT22;15275;51.716;14.324;2023-04-24T10:41:40;22.80;59.10
27940;DHT22;15275;51.716;14.324;2023-04-24T10:44:07;22.70;59.20
27940;DHT22;15275;51.716;14.324;2023-04-24T10:46:35;22.70;59.10
27940;DHT22;15275;51.716;14.324;2023-04-24T10:49:06;22.60;59.00
27940;DHT22;15275;51.716;14.324;2023-04-24T10:51:49;22.50;58.70
27940;DHT22;15275;51.716;14.324;2023-04-24T10:54:29;22.50;58.10
27940;DHT22;15275;51.716;14.324;2023-04-24T10:59:52;22.40;57.50
27940;DHT22;15275;51.716;14.324;2023-04-24T11:02:41;22.30;58.90
27940;DHT22;15275;51.716;14.324;2023-04-24T11:05:18;22.20;59.10
27940;DHT22;15275;51.716;14.324;2023-04-24T11:08:10;22.10;58.70
27940;DHT22;15275;51.716;14.324;2023-04-24T11:10:47;22.00;57.30
27940;DHT22;15275;51.716;14.324;2023-04-24T11:13:23;22.00;58.90
27940;DHT22;15275;51.716;14.324;2023-04-24T11:18:42;22.00;59.20
27940;DHT22;15275;51.716;14.324;2023-04-24T11:21:17;22.00;60.60
27940;DHT22;15275;51.716;14.324;2023-04-24T11:23:44;22.20;60.10
27940;DHT22;15275;51.716;14.324;2023-04-24T11:26:18;22.20;60.70
27940;DHT22;15275;51.716;14.324;2023-04-24T11:28:47;22.30;59.10
27940;DHT22;15275;51.716;14.324;2023-04-24T11:31:40;22.40;60.00
27940;DHT22;15275;51.716;14.324;2023-04-24T11:34:13;22.50;57.30
27940;DHT22;15275;51.716;14.324;2023-04-24T11:36:42;22.50;59.10
27940;DHT22;15275;51.716;14.324;2023-04-24T11:39:11;22.50;59.30
27940;DHT22;15275;51.716;14.324;2023-04-24T11:41:38;22.50;59.20
27940;DHT22;15275;51.716;14.324;2023-04-24T11:44:07;22.50;59.30
27940;DHT22;15275;51.716;14.324;2023-04-24T11:46:34;22.50;58.70
27940;DHT22;15275;51.716;14.324;2023-04-24T11:49:00;22.50;58.80
27940;DHT22;15275;51.716;14.324;2023-04-24T11:51:27;22.50;58.80
27940;DHT22;15275;51.716;14.324;2023-04-24T11:53:54;22.50;58.80
27940;DHT22;15275;51.716;14.324;2023-04-24T11:56:22;22.50;58.50
27940;DHT22;15275;51.716;14.324;2023-04-24T11:58:50;22.50;58.90
27940;DHT22;15275;51.716;14.324;2023-04-24T12:01:18;22.50;59.30
27940;DHT22;15275;51.716;14.324;2023-04-24T12:03:48;22.50;59.70
27940;DHT22;15275;51.716;14.324;2023-04-24T12:06:14;22.60;58.60
27940;DHT22;15275;51.716;14.324;2023-04-24T12:08:40;22.70;58.70
27940;DHT22;15275;51.716;14.324;2023-04-24T12:11:07;22.70;58.90
27940;DHT22;15275;51.716;14.324;2023-04-24T12:13:33;22.80;58.50
27940;DHT22;15275;51.716;14.324;2023-04-24T12:16:03;22.90;58.20
27940;DHT22;15275;51.716;14.324;2023-04-24T12:18:30;22.90;57.70
27940;DHT22;15275;51.716;14.324;2023-04-24T12:21:23;22.90;57.90
27940;DHT22;15275;51.716;14.324;2023-04-24T12:23:54;23.00;56.30
27940;DHT22;15275;51.716;14.324;2023-04-24T12:26:21;23.00;57.80
27940;DHT22;15275;51.716;14.324;2023-04-24T12:28:49;23.00;57.60
27940;DHT22;15275;51.716;14.324;2023-04-24T12:31:16;23.10;57.20
27940;DHT22;15275;51.716;14.324;2023-04-24T12:33:42;23.10;56.80
27940;DHT22;15275;51.716;14.324;2023-04-24T12:36:12;23.10;57.20
27940;DHT22;15275;51.716;14.324;2023-04-24T12:38:38;23.10;57.10
27940;DHT22;15275;51.716;14.324;2023-04-24T12:41:12;23.10;56.90
27940;DHT22;15275;51.716;14.324;2023-04-24T12:43:53;23.10;56.70
27940;DHT22;15275;51.716;14.324;2023-04-24T12:46:20;23.10;55.50
27940;DHT22;15275;51.716;14.324;2023-04-24T12:48:46;23.10;57.50
27940;DHT22;15275;51.716;14.324;2023-04-24T12:51:12;23.10;57.30
27940;DHT22;15275;51.716;14.324;2023-04-24T12:53:38;23.10;56.90
27940;DHT22;15275;51.716;14.324;2023-04-24T12:56:04;23.10;57.20
27940;DHT22;15275;51.716;14.324;2023-04-24T12:58:30;23.10;57.30
27940;DHT22;15275;51.716;14.324;2023-04-24T13:00:56;23.20;57.20
27940;DHT22;15275;51.716;14.324;2023-04-24T13:03:22;23.20;57.00
27940;DHT22;15275;51.716;14.324;2023-04-24T13:05:47;23.20;56.80
27940;DHT22;15275;51.716;14.324;2023-04-24T13:08:13;23.10;56.70
27940;DHT22;15275;51.716;14.324;2023-04-24T13:10:39;23.10;56.40
27940;DHT22;15275;51.716;14.324;2023-04-24T13:13:06;23.10;57.20
27940;DHT22;15275;51.716;14.324;2023-04-24T13:15:32;23.00;57.20
27940;DHT22;15275;51.716;14.324;2023-04-24T13:17:58;23.00;57.60
27940;DHT22;15275;51.716;14.324;2023-04-24T13:20:24;23.10;57.70
27940;DHT22;15275;51.716;14.324;2023-04-24T13:22:50;23.10;57.50
27940;DHT22;15275;51.716;14.324;2023-04-24T13:25:16;23.10;56.30
27940;DHT22;15275;51.716;14.324;2023-04-24T13:27:43;23.10;56.10
27940;DHT22;15275;51.716;14.324;2023-04-24T13:30:10;23.10;56.00
27940;DHT22;15275;51.716;14.324;2023-04-24T13:32:36;23.00;56.20
27940;DHT22;15275;51.716;14.324;2023-04-24T13:35:02;22.90;55.50
27940;DHT22;15275;51.716;14.324;2023-04-24T13:37:28;22.80;55.70
27940;DHT22;15275;51.716;14.324;2023-04-24T13:39:54;22.60;55.70
27940;DHT22;15275;51.716;14.324;2023-04-24T13:42:20;22.50;56.20
27940;DHT22;15275;51.716;14.324;2023-04-24T13:44:46;22.40;56.20
27940;DHT22;15275;51.716;14.324;2023-04-24T13:47:12;22.30;56.60
27940;DHT22;15275;51.716;14.324;2023-04-24T13:49:38;22.20;56.70
27940;DHT22;15275;51.716;14.324;2023-04-24T13:52:04;22.20;56.60
27940;DHT22;15275;51.716;14.324;2023-04-24T13:54:30;22.10;56.10
27940;DHT22;15275;51.716;14.324;2023-04-24T13:56:58;21.90;55.50
27940;DHT22;15275;51.716;14.324;2023-04-24T13:59:24;21.70;55.50
27940;DHT22;15275;51.716;14.324;2023-04-24T14:01:50;21.50;55.80
27940;DHT22;15275;51.716;14.324;2023-04-24T14:04:16;21.30;56.10
27940;DHT22;15275;51.716;14.324;2023-04-24T14:06:42;21.10;56.40
27940;DHT22;15275;51.716;14.324;2023-04-24T14:09:09;20.90;56.80
27940;DHT22;15275;51.716;14.324;2023-04-24T14:11:35;20.70;57.40
27940;DHT22;15275;51.716;14.324;2023-04-24T14:14:01;20.50;57.90
27940;DHT22;15275;51.716;14.324;2023-04-24T14:16:28;20.40;58.30
27940;DHT22;15275;51.716;14.324;2023-04-24T14:18:54;20.30;58.60
27940;DHT22;15275;51.716;14.324;2023-04-24T14:21:20;20.20;58.90
27940;DHT22;15275;51.716;14.324;2023-04-24T14:23:46;20.10;59.10
27940;DHT22;15275;51.716;14.324;2023-04-24T14:26:11;20.10;59.40
27940;DHT22;15275;51.716;14.324;2023-04-24T14:28:37;20.10;59.70
27940;DHT22;15275;51.716;14.324;2023-04-24T14:31:03;20.10;59.90
27940;DHT22;15275;51.716;14.324;2023-04-24T14:33:30;20.10;60.10
27940;DHT22;15275;51.716;14.324;2023-04-24T14:35:56;20.20;60.70
27940;DHT22;15275;51.716;14.324;2023-04-24T14:38:22;20.30;60.70
27940;DHT22;15275;51.716;14.324;2023-04-24T14:40:48;20.40;60.60
27940;DHT22;15275;51.716;14.324;2023-04-24T14:43:13;20.50;60.20
27940;DHT22;15275;51.716;14.324;2023-04-24T14:45:39;20.60;59.90
27940;DHT22;15275;51.716;14.324;2023-04-24T14:48:07;20.70;59.50
27940;DHT22;15275;51.716;14.324;2023-04-24T14:50:33;20.80;59.60
27940;DHT22;15275;51.716;14.324;2023-04-24T14:52:59;20.90;59.50
27940;DHT22;15275;51.716;14.324;2023-04-24T14:55:27;21.00;58.80
27940;DHT22;15275;51.716;14.324;2023-04-24T14:57:54;21.10;58.10
27940;DHT22;15275;51.716;14.324;2023-04-24T15:00:21;21.10;57.90
27940;DHT22;15275;51.716;14.324;2023-04-24T15:02:48;21.20;57.10
27940;DHT22;15275;51.716;14.324;2023-04-24T15:05:14;21.20;56.60
27940;DHT22;15275;51.716;14.324;2023-04-24T15:07:40;21.20;55.60
27940;DHT22;15275;51.716;14.324;2023-04-24T15:10:07;21.30;55.20
27940;DHT22;15275;51.716;14.324;2023-04-24T15:12:33;21.30;54.60
27940;DHT22;15275;51.716;14.324;2023-04-24T15:14:59;21.30;54.20
27940;DHT22;15275;51.716;14.324;2023-04-24T15:17:26;21.30;53.80
27940;DHT22;15275;51.716;14.324;2023-04-24T15:19:52;21.30;53.60